Terminal Aerodrome Forecast
Issued by NWS Jackson, MS

Home | Current Version | Previous Version | Text Only | Print | Product List | Glossary On
Versions: 1 2 3 4 5 6 7 8 9 10 11 12 13 14
000
FTUS44 KJAN 231120
TAFGWO
TAF
KGWO 231120Z 2312/2412 20016G25KT 6SM -SHRA BKN025 BKN090
     FM231400 20017G26KT 5SM SHRA VCTS BKN025CB OVC090
     FM232000 22014KT 6SM -SHRA BR SCT025 BKN050
     FM240200 22008KT 6SM SHRA VCTS BKN050CB OVC250=

USA.gov is the U.S. government's official web portal to all federal, state and local government web resources and services.